Time;durP1;ratioP1;P1;durP2;ratioP2;P2;SDS_P1;SDS_P2;PMS_P1;PMS_P2;Temp;Humidity;BMP_temperature;BMP_pressure;BME280_temperature;BME280_humidity;BME280_pressure;Samples;Min_cycle;Max_cycle;Signal;HPM_P1;HPM_P2
2021/06/16 00:00:38;;;;;;;2.95;1.45;;;;;;;23.16;25.38;101334.69;6167217;23;20009;-78
2021/06/16 00:03:10;;;;;;;2.47;1.15;;;;;;;23.12;25.62;101333.38;6193052;23;20101;-79
2021/06/16 00:05:43;;;;;;;2.17;1.10;;;;;;;23.11;25.83;101331.66;6191738;23;20012;-78
2021/06/16 00:08:12;;;;;;;2.40;1.08;;;;;;;23.10;25.48;101332.72;6166472;23;20344;-78
2021/06/16 00:10:40;;;;;;;2.10;1.15;;;;;;;23.08;25.55;101326.47;6165879;23;20018;-78
2021/06/16 00:13:09;;;;;;;3.92;1.30;;;;;;;23.08;25.61;101328.38;6165440;23;20032;-78
2021/06/16 00:15:41;;;;;;;2.25;1.10;;;;;;;23.07;25.79;101327.53;6165320;23;20005;-78
2021/06/16 00:18:09;;;;;;;2.60;1.20;;;;;;;23.03;25.85;101322.56;6165834;23;20009;-78
2021/06/16 00:20:38;;;;;;;2.28;1.20;;;;;;;23.00;25.55;101321.03;6192432;23;20012;-78
2021/06/16 00:23:07;;;;;;;2.55;1.30;;;;;;;22.99;25.87;101315.66;6191934;23;20075;-78
2021/06/16 00:25:36;;;;;;;3.17;1.30;;;;;;;22.96;25.55;101314.16;6165884;23;20099;-78
2021/06/16 00:28:05;;;;;;;2.55;1.30;;;;;;;22.95;25.81;101315.22;6192231;23;20005;-79
2021/06/16 00:30:34;;;;;;;3.13;1.48;;;;;;;22.94;25.83;101310.69;6192856;23;20021;-79
2021/06/16 00:33:03;;;;;;;3.47;1.25;;;;;;;22.90;25.68;101307.44;6192167;23;20049;-79
2021/06/16 00:35:32;;;;;;;2.75;1.48;;;;;;;22.87;25.92;101304.22;6165456;23;20027;-79
2021/06/16 00:38:00;;;;;;;3.45;1.38;;;;;;;22.85;26.23;101309.97;6165596;23;20005;-79
2021/06/16 00:40:30;;;;;;;2.30;1.27;;;;;;;22.84;26.12;101308.25;6165581;23;20029;-79
2021/06/16 00:43:00;;;;;;;2.60;1.52;;;;;;;22.81;25.91;101303.03;6192230;23;20102;-79
2021/06/16 00:45:30;;;;;;;3.13;1.20;;;;;;;22.80;26.15;101306.06;6165707;23;20049;-78
2021/06/16 00:48:01;;;;;;;3.00;1.40;;;;;;;22.78;25.83;101297.03;6166010;23;20335;-79
2021/06/16 00:50:34;;;;;;;2.85;1.35;;;;;;;22.76;26.33;101304.72;6165937;23;20029;-79
2021/06/16 00:53:02;;;;;;;2.17;1.30;;;;;;;22.69;26.23;101298.22;6165257;23;20025;-79
2021/06/16 00:55:31;;;;;;;2.20;1.13;;;;;;;22.69;26.09;101301.88;6192122;23;20016;-79
2021/06/16 00:57:59;;;;;;;3.65;1.42;;;;;;;22.66;25.93;101293.03;6165464;23;20013;-79
2021/06/16 01:00:42;;;;;;;4.07;1.60;;;;;;;22.67;26.40;101297.56;6141321;23;20047;-79
2021/06/16 01:03:15;;;;;;;;;;;;;;;22.31;26.29;101298.53;6192987;23;20004;-79
2021/06/16 01:05:50;;;;;;;2.05;1.20;;;;;;;22.54;26.34;101292.75;6191324;23;20037;-79
2021/06/16 01:08:26;;;;;;;2.47;1.33;;;;;;;22.55;26.22;101297.25;6192367;23;20041;-79
2021/06/16 01:10:58;;;;;;;2.67;1.27;;;;;;;22.50;25.85;101288.63;6192037;23;20021;-78
2021/06/16 01:13:34;;;;;;;3.53;1.45;;;;;;;22.48;26.33;101287.94;6165180;23;20274;-79
2021/06/16 01:16:08;;;;;;;3.20;1.33;;;;;;;22.45;26.56;101291.16;6192440;23;20012;-79
2021/06/16 01:19:07;;;;;;;3.72;1.70;;;;;;;22.43;26.30;101285.78;6167144;23;20016;-79
2021/06/16 01:22:00;;;;;;;3.03;1.45;;;;;;;22.39;26.45;101287.25;6188570;23;20118;-79
2021/06/16 01:24:51;;;;;;;3.25;1.50;;;;;;;22.35;26.59;101288.69;6164791;23;20045;-79
2021/06/16 01:27:30;;;;;;;2.90;1.60;;;;;;;22.28;26.79;101276.63;6191421;23;20364;-80
2021/06/16 01:30:15;;;;;;;3.53;1.70;;;;;;;22.19;26.48;101275.88;6143922;23;20338;-79
2021/06/16 01:33:05;;;;;;;5.43;1.70;;;;;;;22.14;27.04;101278.41;6168620;23;20025;-79
2021/06/16 01:35:55;;;;;;;3.95;1.83;;;;;;;22.07;27.00;101274.66;6187270;23;20094;-79
2021/06/16 01:38:45;;;;;;;3.97;2.00;;;;;;;22.01;26.59;101272.66;6190652;23;20013;-79
2021/06/16 01:41:33;;;;;;;4.22;2.10;;;;;;;21.94;26.85;101274.50;6189473;23;20009;-79
2021/06/16 01:44:24;;;;;;;3.42;2.00;;;;;;;21.90;27.05;101273.19;6191766;23;20041;-80
2021/06/16 01:47:13;;;;;;;3.10;1.80;;;;;;;21.83;26.75;101263.88;6191894;23;20020;-79
2021/06/16 01:49:57;;;;;;;3.90;2.00;;;;;;;21.81;27.29;101266.03;6144102;23;20017;-80
2021/06/16 01:52:49;;;;;;;3.80;2.00;;;;;;;21.78;27.27;101263.63;6188011;23;20049;-80
2021/06/16 01:55:41;;;;;;;4.75;2.40;;;;;;;21.73;27.08;101269.78;6187281;23;20009;-80
2021/06/16 01:58:29;;;;;;;3.92;1.80;;;;;;;21.72;27.52;101272.75;6170085;23;20016;-80
2021/06/16 02:01:22;;;;;;;3.60;2.03;;;;;;;21.72;27.84;101272.75;6191343;23;20013;-79
2021/06/16 02:04:10;;;;;;;3.30;1.70;;;;;;;21.65;27.63;101277.41;6166596;23;20265;-79
2021/06/16 02:07:05;;;;;;;3.30;2.05;;;;;;;21.68;28.01;101275.06;6168319;23;20099;-80
2021/06/16 02:09:55;;;;;;;3.38;1.90;;;;;;;21.67;27.78;101272.47;6192082;23;20017;-80
2021/06/16 02:12:46;;;;;;;3.53;1.77;;;;;;;21.69;27.78;101284.28;6191449;23;20024;-80
2021/06/16 02:15:38;;;;;;;3.38;1.80;;;;;;;21.69;27.75;101270.34;6191702;23;20016;-80
2021/06/16 02:18:34;;;;;;;4.30;2.05;;;;;;;21.69;28.00;101275.94;6193788;23;20006;-80
2021/06/16 02:21:22;;;;;;;3.50;1.92;;;;;;;21.66;27.47;101279.97;6193340;23;20005;-80
2021/06/16 02:24:12;;;;;;;3.88;1.88;;;;;;;21.68;27.37;101275.06;6171767;23;20015;-80
2021/06/16 02:27:00;;;;;;;3.22;2.30;;;;;;;21.67;27.90;101262.19;6192737;23;20009;-80
2021/06/16 02:29:49;;;;;;;3.85;2.05;;;;;;;21.67;27.49;101259.41;6193954;23;20045;-80
2021/06/16 02:32:37;;;;;;;3.47;1.80;;;;;;;21.67;27.82;101252.97;6193054;23;20041;-79
2021/06/16 02:35:26;;;;;;;4.68;1.95;;;;;;;21.69;27.46;101259.22;6171750;23;20024;-79
2021/06/16 02:38:19;;;;;;;3.00;1.80;;;;;;;21.70;28.12;101247.91;6193325;23;20020;-79
2021/06/16 02:41:12;;;;;;;3.17;1.75;;;;;;;21.66;27.78;101246.53;6193842;23;20327;-79
2021/06/16 02:44:00;;;;;;;;;;;;;;;21.37;28.29;101254.94;6194680;23;20015;-79
2021/06/16 02:46:51;;;;;;;3.47;1.80;;;;;;;21.63;27.88;101241.38;6192936;23;19916;-79
2021/06/16 02:49:42;;;;;;;3.45;1.90;;;;;;;21.65;27.56;101244.84;6193867;23;20009;-79
2021/06/16 02:52:32;;;;;;;3.85;1.90;;;;;;;21.63;28.42;101232.16;6193687;23;20032;-79
2021/06/16 02:55:23;;;;;;;3.85;2.40;;;;;;;21.59;28.31;101231.69;6193562;23;20050;-79
2021/06/16 02:58:08;;;;;;;5.80;2.20;;;;;;;21.58;27.99;101234.66;6169583;23;20005;-79
2021/06/16 03:00:37;;;;;;;3.90;2.17;;;;;;;21.56;28.22;101234.88;6166924;23;20337;-79
2021/06/16 03:03:07;;;;;;;3.08;2.00;;;;;;;21.52;28.07;101227.06;6193644;23;20009;-79
2021/06/16 03:05:37;;;;;;;3.92;1.85;;;;;;;21.50;28.28;101234.75;6166607;23;20337;-79
2021/06/16 03:08:21;;;;;;;3.45;1.85;;;;;;;21.47;28.32;101232.38;6166966;23;20079;-79
2021/06/16 03:10:50;;;;;;;2.85;1.70;;;;;;;21.43;28.56;101224.41;6166672;23;20265;-79
2021/06/16 03:13:19;;;;;;;4.90;2.10;;;;;;;21.42;28.38;101221.81;6193215;23;20096;-79
2021/06/16 03:15:48;;;;;;;4.07;2.00;;;;;;;21.41;28.63;101225.63;6166464;23;20009;-79
2021/06/16 03:18:17;;;;;;;5.30;2.30;;;;;;;21.38;28.93;101224.13;6166164;23;20024;-79
2021/06/16 03:20:45;;;;;;;3.53;2.00;;;;;;;21.35;28.93;101229.22;6192900;23;20016;-78
2021/06/16 03:23:14;;;;;;;4.15;2.05;;;;;;;21.32;28.53;101229.63;6166188;23;20081;-79
2021/06/16 03:25:46;;;;;;;3.55;2.00;;;;;;;21.32;28.76;101226.84;6166305;23;20009;-80
2021/06/16 03:28:17;;;;;;;3.35;2.00;;;;;;;21.27;28.90;101234.88;6192840;23;20240;-80
2021/06/16 03:30:46;;;;;;;3.47;2.10;;;;;;;21.24;28.96;101230.59;6192329;23;20307;-81
2021/06/16 03:33:14;;;;;;;4.35;1.98;;;;;;;21.23;28.92;101225.22;6166189;23;20459;-80
2021/06/16 03:35:44;;;;;;;3.33;1.77;;;;;;;21.21;28.56;101228.19;6165879;23;20298;-80
2021/06/16 03:38:14;;;;;;;4.20;2.30;;;;;;;21.22;29.18;101217.91;6192918;23;20282;-80
2021/06/16 03:40:45;;;;;;;4.28;2.03;;;;;;;21.22;29.26;101220.69;6166560;23;20098;-80
2021/06/16 03:43:15;;;;;;;3.33;1.83;;;;;;;21.20;28.95;101214.47;6165852;23;20009;-80
2021/06/16 03:45:44;;;;;;;3.90;2.20;;;;;;;21.22;28.65;101218.78;6165903;23;20338;-80
2021/06/16 03:48:14;;;;;;;4.00;2.20;;;;;;;21.21;29.18;101210.63;6192891;23;20009;-80
2021/06/16 03:50:44;;;;;;;4.20;1.80;;;;;;;21.20;29.51;101215.31;6166244;23;20360;-80
2021/06/16 03:53:13;;;;;;;4.47;1.98;;;;;;;21.20;29.02;101206.13;6192412;23;20020;-80
2021/06/16 03:55:46;;;;;;;6.32;2.03;;;;;;;21.18;29.72;101206.31;6166329;23;20036;-80
2021/06/16 03:58:15;;;;;;;3.17;2.00;;;;;;;21.14;29.02;101209.69;6165622;23;20235;-80
2021/06/16 04:00:44;;;;;;;3.97;2.13;;;;;;;21.12;29.12;101209.00;6193072;23;20020;-80
2021/06/16 04:03:23;;;;;;;4.10;2.13;;;;;;;21.11;29.08;101204.50;6166108;23;20039;-80
2021/06/16 04:05:55;;;;;;;3.53;2.00;;;;;;;21.08;29.05;101208.50;6166532;23;20103;-80
2021/06/16 04:08:28;;;;;;;4.00;2.30;;;;;;;21.11;29.23;101208.13;6193408;23;20259;-79
2021/06/16 04:10:58;;;;;;;4.68;2.25;;;;;;;21.14;29.71;101209.69;6193076;23;20098;-80
2021/06/16 04:13:46;;;;;;;4.05;2.13;;;;;;;21.10;29.39;101199.97;6192292;23;20015;-80
2021/06/16 04:16:35;;;;;;;3.20;1.85;;;;;;;21.11;29.58;101198.94;6193544;23;20015;-79
2021/06/16 04:19:23;;;;;;;4.43;2.40;;;;;;;21.12;29.82;101192.31;6193328;23;20094;-79
2021/06/16 04:22:11;;;;;;;4.95;2.42;;;;;;;21.13;29.22;101186.56;6169485;23;20363;-79
2021/06/16 04:24:59;;;;;;;4.25;2.45;;;;;;;21.14;29.27;101191.06;6189377;23;20025;-80
2021/06/16 04:27:48;;;;;;;3.38;2.13;;;;;;;21.18;29.45;101195.19;6191687;23;20005;-79
2021/06/16 04:30:36;;;;;;;3.75;2.15;;;;;;;21.17;29.42;101196.22;6192361;23;20404;-79
2021/06/16 04:33:24;;;;;;;4.85;2.20;;;;;;;21.18;29.85;101191.53;6191168;23;20013;-80
2021/06/16 04:36:12;;;;;;;4.00;2.40;;;;;;;21.19;29.43;101179.34;6166364;23;20005;-80
2021/06/16 04:39:00;;;;;;;5.30;2.67;;;;;;;21.20;29.66;101178.28;6168543;23;20005;-79
2021/06/16 04:41:48;;;;;;;4.30;2.25;;;;;;;21.21;30.00;101180.03;6192954;23;20020;-80
2021/06/16 04:44:38;;;;;;;4.13;2.05;;;;;;;21.24;29.65;101174.94;6192823;23;20271;-79
2021/06/16 04:47:26;;;;;;;5.00;2.55;;;;;;;21.25;30.05;101178.56;6190977;23;20028;-80
2021/06/16 04:50:15;;;;;;;4.03;2.45;;;;;;;21.28;30.05;101175.41;6192651;23;20306;-80
2021/06/16 04:53:04;;;;;;;4.72;2.42;;;;;;;21.28;30.10;101170.69;6164983;23;20049;-79
2021/06/16 04:55:52;;;;;;;5.70;3.05;;;;;;;21.31;30.04;101169.44;6192339;23;20035;-79
2021/06/16 04:58:39;;;;;;;4.32;2.97;;;;;;;21.31;30.34;101163.88;6191460;23;20098;-80
2021/06/16 05:01:29;;;;;;;5.72;3.20;;;;;;;21.32;30.21;101160.91;6192341;23;20013;-79
2021/06/16 05:04:17;;;;;;;5.50;3.03;;;;;;;21.27;30.28;101163.41;6169855;23;20029;-79
2021/06/16 05:07:06;;;;;;;4.25;2.80;;;;;;;21.25;30.62;101156.31;6192938;23;20005;-80
2021/06/16 05:09:55;;;;;;;7.28;3.20;;;;;;;21.23;30.69;101164.00;6170623;23;20350;-80
2021/06/16 05:12:49;;;;;;;5.13;3.25;;;;;;;21.20;30.41;101156.91;6172590;23;20005;-80
2021/06/16 05:15:37;;;;;;;6.32;3.00;;;;;;;21.22;30.59;101157.56;6192440;23;20342;-80
2021/06/16 05:18:27;;;;;;;5.05;3.08;;;;;;;21.26;31.01;101158.03;6171355;23;20025;-80
2021/06/16 05:21:15;;;;;;;5.80;3.00;;;;;;;21.27;30.81;101157.84;6193147;23;20017;-80
2021/06/16 05:23:44;;;;;;;5.78;3.50;;;;;;;21.31;30.68;101153.63;6193182;23;20305;-80
2021/06/16 05:26:12;;;;;;;6.65;3.45;;;;;;;21.35;31.31;101157.72;6166584;23;20020;-80
2021/06/16 05:28:40;;;;;;;8.40;3.83;;;;;;;21.38;31.41;101145.34;6192862;23;20054;-80
2021/06/16 05:31:11;;;;;;;4.90;2.92;;;;;;;21.43;30.90;101153.94;6165131;23;20103;-80
2021/06/16 05:33:56;;;;;;;5.53;3.25;;;;;;;21.50;31.25;101156.81;6166611;23;20098;-79
2021/06/16 05:36:28;;;;;;;5.43;3.20;;;;;;;21.52;31.29;101141.63;6166089;23;20448;-80
2021/06/16 05:38:56;;;;;;;5.85;2.65;;;;;;;21.60;30.98;101132.34;6193022;23;20290;-77
2021/06/16 05:41:24;;;;;;;10.38;3.58;;;;;;;21.66;31.14;101128.75;6191078;23;20012;-76
2021/06/16 05:43:53;;;;;;;5.43;2.85;;;;;;;21.74;31.24;101131.41;6189220;23;20358;-80
2021/06/16 05:46:21;;;;;;;5.63;2.70;;;;;;;21.82;31.55;101128.47;6189755;23;20029;-80
2021/06/16 05:48:51;;;;;;;4.68;2.90;;;;;;;21.92;31.02;101134.56;6191142;23;20037;-80
2021/06/16 05:51:20;;;;;;;3.97;2.55;;;;;;;21.98;31.44;101139.38;6191421;23;20049;-80
2021/06/16 05:53:48;;;;;;;5.32;3.08;;;;;;;22.07;31.35;101140.06;6141194;23;20009;-80
2021/06/16 05:56:17;;;;;;;4.53;2.40;;;;;;;22.13;31.27;101131.78;6165972;23;20015;-76
2021/06/16 05:58:45;;;;;;;4.65;2.70;;;;;;;22.21;31.26;101130.78;6193048;23;20041;-77
2021/06/16 06:01:13;;;;;;;4.45;2.40;;;;;;;22.28;31.24;101130.84;6167118;23;20028;-80
2021/06/16 06:03:42;;;;;;;4.20;2.55;;;;;;;22.35;31.43;101135.41;6167238;23;20030;-81
2021/06/16 06:06:12;;;;;;;4.15;2.50;;;;;;;22.43;31.06;101131.59;6167550;23;20016;-80
2021/06/16 06:08:41;;;;;;;3.75;2.30;;;;;;;22.47;31.00;101133.78;6191320;23;20001;-77
2021/06/16 06:11:09;;;;;;;3.47;2.40;;;;;;;22.53;30.79;101132.09;6191428;23;20005;-77
2021/06/16 06:13:37;;;;;;;5.35;2.88;;;;;;;22.58;31.00;101130.41;6166530;23;20011;-78
2021/06/16 06:16:06;;;;;;;4.63;2.70;;;;;;;22.64;31.17;101133.47;6193311;23;20009;-78
2021/06/16 06:18:36;;;;;;;4.35;2.83;;;;;;;22.69;30.93;101133.69;6192548;23;20094;-76
2021/06/16 06:21:05;;;;;;;3.83;2.25;;;;;;;22.73;31.11;101129.41;6192734;23;20095;-77
2021/06/16 06:23:37;;;;;;;3.95;2.40;;;;;;;22.79;31.35;101126.69;6167332;23;20024;-77
2021/06/16 06:26:07;;;;;;;4.30;2.78;;;;;;;22.79;31.20;101126.69;6194349;23;20001;-78
2021/06/16 06:28:39;;;;;;;4.60;2.33;;;;;;;22.85;30.72;101128.66;6193087;23;20009;-75
2021/06/16 06:31:07;;;;;;;5.10;2.67;;;;;;;22.89;31.13;101127.16;6193956;23;20024;-78
2021/06/16 06:33:36;;;;;;;5.22;2.65;;;;;;;22.93;31.19;101134.06;6194551;23;20029;-77
2021/06/16 06:36:05;;;;;;;4.00;2.60;;;;;;;22.98;31.04;101130.66;6194131;23;20089;-77
2021/06/16 06:38:35;;;;;;;5.05;2.70;;;;;;;23.03;31.06;101127.25;6194027;23;20021;-78
2021/06/16 06:41:04;;;;;;;4.75;2.50;;;;;;;23.05;31.10;101123.19;6194193;23;20041;-75
2021/06/16 06:43:32;;;;;;;4.35;2.60;;;;;;;23.09;31.35;101120.81;6194814;23;20004;-76
2021/06/16 06:46:01;;;;;;;4.75;2.85;;;;;;;23.13;31.45;101114.63;6165499;23;20113;-79
2021/06/16 06:48:29;;;;;;;3.72;2.38;;;;;;;23.17;30.93;101113.13;6194512;23;20009;-79
2021/06/16 06:50:57;;;;;;;4.90;2.53;;;;;;;23.24;31.10;101115.94;6194740;23;20023;-78
2021/06/16 06:53:28;;;;;;;5.00;2.60;;;;;;;23.29;31.30;101105.88;6194105;23;20050;-85
2021/06/16 06:55:59;;;;;;;4.68;2.67;;;;;;;23.36;31.03;101107.84;6194160;23;20009;-78
2021/06/16 06:58:28;;;;;;;5.88;2.58;;;;;;;23.38;31.10;101103.78;6194707;23;20269;-75
2021/06/16 07:00:57;;;;;;;4.57;2.60;;;;;;;23.44;31.31;101094.53;6193260;23;20057;-76
2021/06/16 07:03:26;;;;;;;3.88;2.70;;;;;;;23.49;30.94;101097.56;6193209;23;20020;-76
2021/06/16 07:05:55;;;;;;;4.55;3.08;;;;;;;23.55;31.04;101088.34;6193314;23;20357;-76
2021/06/16 07:08:23;;;;;;;4.45;2.65;;;;;;;23.59;31.08;101089.66;6164832;23;20019;-77
2021/06/16 07:10:52;;;;;;;4.00;2.63;;;;;;;23.66;30.92;101084.94;6191937;23;20355;-77
2021/06/16 07:13:22;;;;;;;4.30;2.72;;;;;;;23.75;31.17;101087.50;6192937;23;20073;-75
2021/06/16 07:16:07;;;;;;;5.57;2.95;;;;;;;23.79;31.28;101086.03;6166942;23;20009;-76
2021/06/16 07:18:36;;;;;;;3.47;2.67;;;;;;;23.89;31.19;101083.66;6193607;23;20004;-77
2021/06/16 07:21:05;;;;;;;3.90;3.05;;;;;;;23.96;31.08;101082.56;6193623;23;20021;-75
2021/06/16 07:23:34;;;;;;;3.30;2.45;;;;;;;24.05;31.21;101078.47;6193381;23;20103;-76
2021/06/16 07:26:02;;;;;;;4.07;2.75;;;;;;;24.14;30.96;101075.50;6193129;23;20122;-75
2021/06/16 07:28:32;;;;;;;4.28;3.00;;;;;;;24.23;30.81;101072.25;6194193;23;20024;-80
2021/06/16 07:31:00;;;;;;;4.28;2.90;;;;;;;24.29;31.00;101073.34;6142679;23;20412;-78
2021/06/16 07:33:29;;;;;;;4.13;3.08;;;;;;;24.38;30.61;101075.66;6167257;23;20098;-78
2021/06/16 07:35:58;;;;;;;4.13;2.85;;;;;;;24.47;30.85;101067.03;6193293;23;20020;-76
2021/06/16 07:38:27;;;;;;;3.80;2.35;;;;;;;24.56;30.75;101071.31;6193413;23;20008;-75
2021/06/16 07:40:55;;;;;;;4.35;3.10;;;;;;;24.64;30.43;101060.75;6192624;23;20041;-76
2021/06/16 07:43:24;;;;;;;3.78;2.90;;;;;;;24.72;30.77;101059.69;6165481;23;20009;-78
2021/06/16 07:45:53;;;;;;;4.07;2.90;;;;;;;24.84;30.68;101060.72;6192853;23;20012;-77
2021/06/16 07:48:21;;;;;;;4.00;3.00;;;;;;;24.91;30.72;101058.75;6192910;23;20005;-77
2021/06/16 07:50:50;;;;;;;4.97;3.28;;;;;;;25.00;30.52;101057.41;6193600;23;20008;-77
2021/06/16 07:53:18;;;;;;;5.32;3.30;;;;;;;25.10;30.79;101054.16;6193602;23;20040;-77
2021/06/16 07:55:46;;;;;;;3.58;2.58;;;;;;;25.21;30.73;101053.41;6165619;23;20005;-78
2021/06/16 07:58:15;;;;;;;4.05;3.10;;;;;;;25.30;30.39;101054.03;6194021;23;20029;-77
2021/06/16 08:00:43;;;;;;;4.35;2.92;;;;;;;25.40;30.79;101046.88;6193535;23;20278;-77
2021/06/16 08:03:13;;;;;;;4.72;2.83;;;;;;;25.53;30.26;101043.97;6166867;23;20005;-77
2021/06/16 08:05:41;;;;;;;3.70;2.83;;;;;;;25.62;30.42;101043.69;6191969;23;20024;-74
2021/06/16 08:08:29;;;;;;;3.92;3.05;;;;;;;25.72;30.19;101042.09;6192907;23;20016;-75
2021/06/16 08:10:58;;;;;;;4.28;3.25;;;;;;;25.83;30.33;101029.34;6166374;23;20012;-75
2021/06/16 08:13:26;;;;;;;4.35;3.08;;;;;;;25.93;30.17;101032.47;6192809;23;20362;-76
2021/06/16 08:15:54;;;;;;;5.38;3.70;;;;;;;26.03;30.04;101029.13;6165691;23;20016;-75
2021/06/16 08:18:24;;;;;;;4.10;3.40;;;;;;;26.16;30.12;101037.44;6166206;23;20097;-75
2021/06/16 08:20:52;;;;;;;5.45;3.45;;;;;;;26.22;30.22;101028.94;6165962;23;20005;-75
2021/06/16 08:23:27;;;;;;;4.53;3.28;;;;;;;26.32;30.04;101028.41;6165978;23;20025;-77
2021/06/16 08:25:56;;;;;;;4.40;3.53;;;;;;;26.39;30.10;101033.97;6192029;23;20041;-76
2021/06/16 08:28:24;;;;;;;4.97;3.63;;;;;;;26.49;30.01;101037.09;6166345;23;20279;-76
2021/06/16 08:30:52;;;;;;;4.38;3.70;;;;;;;26.56;29.58;101038.75;6192882;23;20009;-75
2021/06/16 08:33:21;;;;;;;4.35;3.05;;;;;;;26.63;29.81;101033.91;6192876;23;20009;-76
2021/06/16 08:35:50;;;;;;;3.83;3.22;;;;;;;26.71;29.51;101029.91;6192043;23;20005;-76
2021/06/16 08:38:18;;;;;;;4.68;3.08;;;;;;;26.78;29.25;101030.69;6192827;23;20005;-76
2021/06/16 08:40:47;;;;;;;3.97;3.38;;;;;;;26.86;29.57;101021.94;6166041;23;20024;-75
2021/06/16 08:43:15;;;;;;;4.05;3.42;;;;;;;26.93;29.52;101028.34;6166402;23;20015;-75
2021/06/16 08:45:44;;;;;;;4.35;3.42;;;;;;;27.02;29.49;101026.94;6191506;23;20016;-75
2021/06/16 08:48:14;;;;;;;4.43;3.30;;;;;;;27.11;29.41;101023.78;6165497;23;20005;-74
2021/06/16 08:50:42;;;;;;;4.07;3.45;;;;;;;27.19;29.09;101020.66;6194172;23;20016;-76
2021/06/16 08:53:12;;;;;;;4.85;3.63;;;;;;;27.28;29.14;101011.66;6191683;23;20036;-76
2021/06/16 08:55:41;;;;;;;4.97;3.20;;;;;;;27.35;29.29;101012.41;6192025;23;20029;-77
2021/06/16 08:58:09;;;;;;;4.65;3.58;;;;;;;27.44;29.31;101010.97;6189605;23;20503;-75
2021/06/16 09:00:40;;;;;;;5.10;3.58;;;;;;;27.51;29.22;101013.69;6192926;23;20021;-77
2021/06/16 09:03:12;;;;;;;5.05;3.67;;;;;;;27.60;29.07;101012.25;6166578;23;20005;-75
2021/06/16 09:05:42;;;;;;;4.00;3.47;;;;;;;27.71;28.93;101011.41;6165615;23;20028;-75
2021/06/16 09:08:20;;;;;;;5.10;3.75;;;;;;;27.84;28.54;101006.66;6165173;23;20009;-74
2021/06/16 09:10:50;;;;;;;4.45;3.70;;;;;;;27.88;28.56;101005.94;6192890;23;20364;-75
2021/06/16 09:13:28;;;;;;;4.53;3.55;;;;;;;27.97;28.43;101004.47;6192578;23;20369;-75
2021/06/16 09:15:58;;;;;;;6.43;3.97;;;;;;;28.01;28.47;100996.41;6193424;23;20882;-75
2021/06/16 09:18:27;;;;;;;4.75;3.65;;;;;;;28.07;28.51;100992.66;6169214;23;20005;-76
2021/06/16 09:20:57;;;;;;;3.92;3.53;;;;;;;28.16;28.35;100994.00;6169221;23;20004;-75
2021/06/16 09:23:28;;;;;;;5.35;3.92;;;;;;;28.23;28.65;100999.47;6167590;23;20009;-75
2021/06/16 09:26:05;;;;;;;4.93;3.80;;;;;;;28.29;28.59;100996.53;6194253;23;20009;-75
2021/06/16 09:28:35;;;;;;;5.07;3.58;;;;;;;28.34;28.44;100988.19;6193911;23;20121;-74
2021/06/16 09:31:03;;;;;;;5.72;4.20;;;;;;;28.42;28.07;100998.22;6193188;23;20126;-74
2021/06/16 09:33:31;;;;;;;5.20;4.00;;;;;;;28.49;27.98;100991.34;6165936;23;20009;-74
2021/06/16 09:36:00;;;;;;;5.35;4.00;;;;;;;28.54;27.97;100985.88;6165026;23;20005;-73
2021/06/16 09:38:32;;;;;;;4.53;3.78;;;;;;;28.62;27.46;100992.22;6165592;23;20054;-74
2021/06/16 09:41:01;;;;;;;5.18;3.75;;;;;;;28.61;28.04;100985.72;6193025;23;20005;-74
2021/06/16 09:43:30;;;;;;;4.75;3.75;;;;;;;28.69;27.72;100987.28;6192067;23;20005;-74
2021/06/16 09:46:00;;;;;;;4.35;3.50;;;;;;;28.75;27.85;100980.66;6190791;23;20178;-75
2021/06/16 09:48:33;;;;;;;5.28;3.60;;;;;;;28.79;27.94;100976.25;6192691;23;20045;-74
2021/06/16 09:51:20;;;;;;;4.60;3.85;;;;;;;28.85;27.91;100981.72;6189509;23;20005;-74
2021/06/16 09:54:14;;;;;;;4.57;3.72;;;;;;;28.90;27.95;100979.00;6191939;23;20354;-73
2021/06/16 09:56:45;;;;;;;5.20;4.00;;;;;;;28.98;27.95;100966.50;6191984;23;20268;-75
2021/06/16 09:59:34;;;;;;;5.82;4.00;;;;;;;29.06;27.91;100959.63;6192296;23;20009;-74
2021/06/16 10:02:03;;;;;;;5.63;3.90;;;;;;;29.13;27.60;100963.16;6191470;23;20020;-74
2021/06/16 10:04:44;;;;;;;5.60;3.88;;;;;;;29.22;27.63;100961.63;6191817;23;20045;-75
2021/06/16 10:07:14;;;;;;;4.82;4.00;;;;;;;29.28;27.65;100961.47;6191922;23;20009;-75
2021/06/16 10:09:53;;;;;;;7.35;4.10;;;;;;;29.36;27.44;100962.16;6192213;23;20447;-75
2021/06/16 10:12:23;;;;;;;5.65;4.10;;;;;;;29.41;27.02;100954.63;6192468;23;20009;-75
2021/06/16 10:14:52;;;;;;;5.88;3.90;;;;;;;29.48;27.11;100965.75;6191771;23;20009;-76
2021/06/16 10:17:20;;;;;;;5.60;4.10;;;;;;;29.52;26.45;100959.34;6191567;23;20009;-76
2021/06/16 10:19:50;;;;;;;5.85;4.30;;;;;;;29.59;26.65;100960.06;6192049;23;20098;-73
2021/06/16 10:22:20;;;;;;;4.80;3.78;;;;;;;29.64;26.63;100951.66;6191521;23;20368;-74
2021/06/16 10:24:48;;;;;;;4.70;3.85;;;;;;;29.69;26.38;100950.91;6191360;23;20117;-76
2021/06/16 10:27:25;;;;;;;5.00;4.00;;;;;;;29.79;26.15;100945.44;6191565;23;20094;-76
2021/06/16 10:30:00;;;;;;;5.10;4.20;;;;;;;29.83;26.29;100945.75;6190707;23;20005;-76
2021/06/16 10:32:37;;;;;;;5.30;4.28;;;;;;;29.92;26.47;100944.22;6191387;23;20044;-74
2021/06/16 10:35:09;;;;;;;4.65;3.97;;;;;;;29.96;26.73;100942.59;6192266;23;20041;-74
2021/06/16 10:37:40;;;;;;;5.22;4.18;;;;;;;30.01;26.51;100940.69;6190799;23;20016;-74
2021/06/16 10:40:33;;;;;;;6.00;4.15;;;;;;;30.07;26.48;100946.44;6194046;23;20005;-73
2021/06/16 10:43:23;;;;;;;5.38;3.97;;;;;;;30.15;26.09;100943.16;6192986;23;20015;-76
2021/06/16 10:45:57;;;;;;;4.82;4.10;;;;;;;30.22;26.13;100943.84;6193202;23;20005;-77
2021/06/16 10:48:54;;;;;;;4.70;3.70;;;;;;;30.28;26.01;100939.97;6193657;23;20008;-76
2021/06/16 10:51:34;;;;;;;4.88;3.85;;;;;;;30.37;26.33;100944.06;6193236;23;20123;-76
2021/06/16 10:54:24;;;;;;;4.68;3.70;;;;;;;30.41;26.10;100943.25;6167643;23;20340;-77
2021/06/16 10:56:56;;;;;;;5.20;3.83;;;;;;;30.48;26.08;100947.84;6193758;23;20020;-77
2021/06/16 11:00:01;;;;;;;5.07;3.78;;;;;;;30.54;26.01;100944.03;6167678;23;20044;-76
2021/06/16 11:03:08;;;;;;;5.15;3.88;;;;;;;30.56;25.57;100941.75;6193128;23;20107;-75
2021/06/16 11:05:44;;;;;;;3.97;3.33;;;;;;;30.70;25.45;100941.13;6192612;23;20005;-75
2021/06/16 11:08:53;;;;;;;5.35;3.83;;;;;;;30.76;25.74;100927.91;6166438;23;20009;-76
2021/06/16 11:11:23;;;;;;;5.50;4.20;;;;;;;30.80;25.06;100933.88;6192284;23;20005;-75
2021/06/16 11:13:52;;;;;;;4.90;3.85;;;;;;;30.84;24.99;100927.44;6193530;23;20008;-74
2021/06/16 11:16:54;;;;;;;5.22;4.10;;;;;;;30.84;25.33;100927.44;6192858;23;20017;-78
2021/06/16 11:19:38;;;;;;;4.55;3.60;;;;;;;30.95;25.42;100915.13;6167904;23;20028;-78
2021/06/16 11:22:37;;;;;;;4.88;3.80;;;;;;;30.97;25.21;100914.84;6141460;23;20016;-77
2021/06/16 11:25:28;;;;;;;4.97;3.75;;;;;;;31.05;25.41;100922.84;6194029;23;20299;-78
2021/06/16 11:28:15;;;;;;;5.00;3.60;;;;;;;31.11;24.93;100914.19;6193646;23;20065;-77
2021/06/16 11:30:54;;;;;;;6.97;4.10;;;;;;;31.15;24.97;100923.81;6193607;23;20009;-78
2021/06/16 11:33:50;;;;;;;5.40;3.92;;;;;;;31.18;25.07;100901.81;6193341;23;20028;-77
2021/06/16 11:36:28;;;;;;;5.13;3.78;;;;;;;31.25;24.80;100903.28;6166613;23;20005;-77
2021/06/16 11:39:03;;;;;;;5.88;4.10;;;;;;;31.29;25.15;100906.44;6166339;23;20005;-75
2021/06/16 11:41:32;;;;;;;5.57;4.00;;;;;;;31.33;24.64;100901.94;6192620;23;20044;-76
2021/06/16 11:44:01;;;;;;;5.55;3.50;;;;;;;31.37;24.61;100898.31;6166655;23;20005;-76
2021/06/16 11:46:33;;;;;;;4.68;3.72;;;;;;;31.42;24.85;100889.88;6165488;23;20051;-77
2021/06/16 11:49:06;;;;;;;4.47;3.60;;;;;;;31.46;25.01;100893.84;6192799;23;20286;-75
2021/06/16 11:51:38;;;;;;;4.50;3.40;;;;;;;31.49;24.61;100886.84;6192383;23;20005;-75
2021/06/16 11:54:22;;;;;;;4.78;3.42;;;;;;;31.53;24.73;100879.53;6193015;23;20073;-75
2021/06/16 11:56:53;;;;;;;5.95;3.70;;;;;;;31.57;24.75;100885.47;6192718;23;20349;-76
2021/06/16 11:59:39;;;;;;;4.97;3.85;;;;;;;31.60;24.65;100879.28;6167030;23;20021;-76
2021/06/16 12:02:13;;;;;;;4.55;3.38;;;;;;;31.66;24.36;100881.00;6166018;23;20048;-75
2021/06/16 12:04:54;;;;;;;4.93;3.50;;;;;;;31.68;23.89;100879.63;6192265;23;20460;-75
2021/06/16 12:07:29;;;;;;;4.47;3.58;;;;;;;31.77;24.42;100871.47;6193193;23;20016;-74